sensor_id;sensor_type;location;lat;lon;timestamp;P1;durP1;ratioP1;P2;durP2;ratioP2
50012;SDS011;35901;48.694;9.476;2022-07-05T00:00:05;4.27;;;3.97;;
50012;SDS011;35901;48.694;9.476;2022-07-05T00:02:38;4.17;;;3.87;;
50012;SDS011;35901;48.694;9.476;2022-07-05T00:05:05;4.43;;;3.43;;
50012;SDS011;35901;48.694;9.476;2022-07-05T00:07:32;3.60;;;3.27;;
50012;SDS011;35901;48.694;9.476;2022-07-05T00:09:58;4.83;;;4.53;;
50012;SDS011;35901;48.694;9.476;2022-07-05T00:12:30;5.17;;;4.77;;
50012;SDS011;35901;48.694;9.476;2022-07-05T00:14:58;5.90;;;5.00;;
50012;SDS011;35901;48.694;9.476;2022-07-05T00:17:25;5.10;;;4.70;;
50012;SDS011;35901;48.694;9.476;2022-07-05T00:19:55;5.43;;;5.03;;
50012;SDS011;35901;48.694;9.476;2022-07-05T00:22:22;6.10;;;5.50;;
50012;SDS011;35901;48.694;9.476;2022-07-05T00:24:49;5.47;;;5.10;;
50012;SDS011;35901;48.694;9.476;2022-07-05T00:27:19;5.90;;;5.40;;
50012;SDS011;35901;48.694;9.476;2022-07-05T00:29:47;5.00;;;4.70;;
50012;SDS011;35901;48.694;9.476;2022-07-05T00:32:13;4.60;;;4.07;;
50012;SDS011;35901;48.694;9.476;2022-07-05T00:34:40;4.23;;;3.30;;
50012;SDS011;35901;48.694;9.476;2022-07-05T00:37:09;4.47;;;4.07;;
50012;SDS011;35901;48.694;9.476;2022-07-05T00:39:36;6.00;;;5.43;;
50012;SDS011;35901;48.694;9.476;2022-07-05T00:42:02;6.37;;;5.17;;
50012;SDS011;35901;48.694;9.476;2022-07-05T00:44:31;6.27;;;5.77;;
50012;SDS011;35901;48.694;9.476;2022-07-05T00:47:05;6.40;;;5.80;;
50012;SDS011;35901;48.694;9.476;2022-07-05T00:49:32;5.50;;;5.00;;
50012;SDS011;35901;48.694;9.476;2022-07-05T00:52:00;5.17;;;4.80;;
50012;SDS011;35901;48.694;9.476;2022-07-05T00:54:29;6.53;;;6.03;;
50012;SDS011;35901;48.694;9.476;2022-07-05T00:57:01;6.70;;;6.07;;
50012;SDS011;35901;48.694;9.476;2022-07-05T00:59:28;6.90;;;6.30;;
50012;SDS011;35901;48.694;9.476;2022-07-05T01:01:56;7.00;;;6.40;;
50012;SDS011;35901;48.694;9.476;2022-07-05T01:04:23;7.50;;;6.90;;
50012;SDS011;35901;48.694;9.476;2022-07-05T01:06:51;7.37;;;6.60;;
50012;SDS011;35901;48.694;9.476;2022-07-05T01:09:20;6.97;;;6.27;;
50012;SDS011;35901;48.694;9.476;2022-07-05T01:11:51;5.97;;;5.50;;
50012;SDS011;35901;48.694;9.476;2022-07-05T01:14:18;6.23;;;5.70;;
50012;SDS011;35901;48.694;9.476;2022-07-05T01:16:47;7.17;;;6.57;;
50012;SDS011;35901;48.694;9.476;2022-07-05T01:19:15;7.30;;;6.70;;
50012;SDS011;35901;48.694;9.476;2022-07-05T01:21:46;6.10;;;5.60;;
50012;SDS011;35901;48.694;9.476;2022-07-05T01:24:17;5.77;;;5.40;;
50012;SDS011;35901;48.694;9.476;2022-07-05T01:26:45;5.53;;;5.03;;
50012;SDS011;35901;48.694;9.476;2022-07-05T01:29:12;7.50;;;6.80;;
50012;SDS011;35901;48.694;9.476;2022-07-05T01:31:38;8.70;;;7.80;;
50012;SDS011;35901;48.694;9.476;2022-07-05T01:34:06;8.27;;;7.67;;
50012;SDS011;35901;48.694;9.476;2022-07-05T01:36:33;8.47;;;7.67;;
50012;SDS011;35901;48.694;9.476;2022-07-05T01:39:00;8.87;;;8.17;;
50012;SDS011;35901;48.694;9.476;2022-07-05T01:41:28;8.83;;;8.13;;
50012;SDS011;35901;48.694;9.476;2022-07-05T01:43:55;9.57;;;8.77;;
50012;SDS011;35901;48.694;9.476;2022-07-05T01:46:21;9.37;;;8.57;;
50012;SDS011;35901;48.694;9.476;2022-07-05T01:48:56;7.10;;;6.50;;
50012;SDS011;35901;48.694;9.476;2022-07-05T01:51:29;6.70;;;6.13;;
50012;SDS011;35901;48.694;9.476;2022-07-05T01:53:59;7.47;;;6.97;;
50012;SDS011;35901;48.694;9.476;2022-07-05T01:56:25;7.73;;;7.20;;
50012;SDS011;35901;48.694;9.476;2022-07-05T01:58:52;8.53;;;7.83;;
50012;SDS011;35901;48.694;9.476;2022-07-05T02:01:35;10.37;;;9.47;;
50012;SDS011;35901;48.694;9.476;2022-07-05T02:04:07;10.17;;;9.30;;
50012;SDS011;35901;48.694;9.476;2022-07-05T02:06:37;9.90;;;9.10;;
50012;SDS011;35901;48.694;9.476;2022-07-05T02:09:07;11.53;;;10.53;;
50012;SDS011;35901;48.694;9.476;2022-07-05T02:11:34;11.00;;;10.13;;
50012;SDS011;35901;48.694;9.476;2022-07-05T02:14:02;11.23;;;10.27;;
50012;SDS011;35901;48.694;9.476;2022-07-05T02:16:33;9.50;;;8.60;;
50012;SDS011;35901;48.694;9.476;2022-07-05T02:19:13;9.23;;;8.43;;
50012;SDS011;35901;48.694;9.476;2022-07-05T02:21:42;8.03;;;6.80;;
50012;SDS011;35901;48.694;9.476;2022-07-05T02:24:13;7.07;;;6.37;;
50012;SDS011;35901;48.694;9.476;2022-07-05T02:26:50;7.63;;;7.03;;
50012;SDS011;35901;48.694;9.476;2022-07-05T02:29:19;6.90;;;6.37;;
50012;SDS011;35901;48.694;9.476;2022-07-05T02:31:49;8.40;;;7.60;;
50012;SDS011;35901;48.694;9.476;2022-07-05T02:34:18;7.30;;;6.80;;
50012;SDS011;35901;48.694;9.476;2022-07-05T02:36:44;8.07;;;7.37;;
50012;SDS011;35901;48.694;9.476;2022-07-05T02:39:13;8.17;;;7.40;;
50012;SDS011;35901;48.694;9.476;2022-07-05T02:41:40;8.23;;;7.63;;
50012;SDS011;35901;48.694;9.476;2022-07-05T02:44:12;11.50;;;10.30;;
50012;SDS011;35901;48.694;9.476;2022-07-05T02:46:42;12.13;;;11.17;;
50012;SDS011;35901;48.694;9.476;2022-07-05T02:49:11;12.13;;;10.90;;
50012;SDS011;35901;48.694;9.476;2022-07-05T02:51:40;10.60;;;9.80;;
50012;SDS011;35901;48.694;9.476;2022-07-05T02:54:12;11.30;;;10.40;;
50012;SDS011;35901;48.694;9.476;2022-07-05T02:56:39;11.77;;;10.67;;
50012;SDS011;35901;48.694;9.476;2022-07-05T02:59:08;10.60;;;9.70;;
50012;SDS011;35901;48.694;9.476;2022-07-05T03:01:37;11.10;;;10.10;;
50012;SDS011;35901;48.694;9.476;2022-07-05T03:04:08;12.37;;;11.13;;
50012;SDS011;35901;48.694;9.476;2022-07-05T03:06:36;12.67;;;11.57;;
50012;SDS011;35901;48.694;9.476;2022-07-05T03:09:03;12.53;;;11.53;;
50012;SDS011;35901;48.694;9.476;2022-07-05T03:11:30;13.17;;;11.87;;
50012;SDS011;35901;48.694;9.476;2022-07-05T03:13:57;12.20;;;11.27;;
50012;SDS011;35901;48.694;9.476;2022-07-05T03:16:23;12.43;;;11.33;;
50012;SDS011;35901;48.694;9.476;2022-07-05T03:18:50;11.07;;;10.17;;
50012;SDS011;35901;48.694;9.476;2022-07-05T03:24:08;9.53;;;8.57;;
50012;SDS011;35901;48.694;9.476;2022-07-05T03:26:36;8.43;;;7.63;;
50012;SDS011;35901;48.694;9.476;2022-07-05T03:29:03;8.77;;;7.40;;
50012;SDS011;35901;48.694;9.476;2022-07-05T03:31:30;8.80;;;8.10;;
50012;SDS011;35901;48.694;9.476;2022-07-05T03:33:57;8.87;;;7.97;;
50012;SDS011;35901;48.694;9.476;2022-07-05T03:36:24;10.57;;;9.57;;
50012;SDS011;35901;48.694;9.476;2022-07-05T03:38:50;10.53;;;9.63;;
50012;SDS011;35901;48.694;9.476;2022-07-05T03:41:17;12.80;;;11.70;;
50012;SDS011;35901;48.694;9.476;2022-07-05T03:43:43;12.13;;;11.07;;
50012;SDS011;35901;48.694;9.476;2022-07-05T03:46:11;12.07;;;10.97;;
50012;SDS011;35901;48.694;9.476;2022-07-05T03:48:43;11.57;;;10.43;;
50012;SDS011;35901;48.694;9.476;2022-07-05T03:51:13;12.20;;;11.10;;
50012;SDS011;35901;48.694;9.476;2022-07-05T03:53:39;10.83;;;10.03;;
50012;SDS011;35901;48.694;9.476;2022-07-05T03:56:05;13.53;;;12.33;;
50012;SDS011;35901;48.694;9.476;2022-07-05T03:58:33;14.27;;;12.87;;
50012;SDS011;35901;48.694;9.476;2022-07-05T04:00:59;12.60;;;11.60;;
50012;SDS011;35901;48.694;9.476;2022-07-05T04:03:26;15.23;;;13.63;;
50012;SDS011;35901;48.694;9.476;2022-07-05T04:05:54;13.40;;;12.30;;
50012;SDS011;35901;48.694;9.476;2022-07-05T04:08:20;11.87;;;10.77;;
50012;SDS011;35901;48.694;9.476;2022-07-05T04:10:48;9.87;;;9.13;;
50012;SDS011;35901;48.694;9.476;2022-07-05T04:13:17;9.53;;;8.73;;
50012;SDS011;35901;48.694;9.476;2022-07-05T04:15:44;9.93;;;9.10;;
50012;SDS011;35901;48.694;9.476;2022-07-05T04:18:10;8.17;;;7.57;;
50012;SDS011;35901;48.694;9.476;2022-07-05T04:20:39;8.07;;;7.37;;
50012;SDS011;35901;48.694;9.476;2022-07-05T04:26:59;7.57;;;6.40;;
50012;SDS011;35901;48.694;9.476;2022-07-05T04:29:28;5.97;;;5.47;;
50012;SDS011;35901;48.694;9.476;2022-07-05T04:31:55;4.97;;;4.67;;
50012;SDS011;35901;48.694;9.476;2022-07-05T04:34:21;5.97;;;5.47;;
50012;SDS011;35901;48.694;9.476;2022-07-05T04:36:48;5.07;;;4.67;;
50012;SDS011;35901;48.694;9.476;2022-07-05T04:39:14;4.30;;;4.00;;
50012;SDS011;35901;48.694;9.476;2022-07-05T04:41:50;4.80;;;4.33;;
50012;SDS011;35901;48.694;9.476;2022-07-05T04:44:16;4.20;;;3.90;;
50012;SDS011;35901;48.694;9.476;2022-07-05T04:46:42;4.07;;;3.70;;
50012;SDS011;35901;48.694;9.476;2022-07-05T04:49:14;4.33;;;3.50;;
50012;SDS011;35901;48.694;9.476;2022-07-05T04:51:41;3.50;;;3.10;;
50012;SDS011;35901;48.694;9.476;2022-07-05T04:54:19;3.30;;;3.10;;
50012;SDS011;35901;48.694;9.476;2022-07-05T04:56:45;6.67;;;3.00;;
50012;SDS011;35901;48.694;9.476;2022-07-05T04:59:11;3.00;;;2.80;;
50012;SDS011;35901;48.694;9.476;2022-07-05T05:01:38;2.87;;;2.60;;
50012;SDS011;35901;48.694;9.476;2022-07-05T05:04:05;2.87;;;2.73;;
50012;SDS011;35901;48.694;9.476;2022-07-05T05:06:31;4.50;;;2.70;;
50012;SDS011;35901;48.694;9.476;2022-07-05T05:08:57;2.70;;;2.50;;
50012;SDS011;35901;48.694;9.476;2022-07-05T05:11:24;3.10;;;2.40;;
50012;SDS011;35901;48.694;9.476;2022-07-05T05:13:51;3.73;;;2.60;;
50012;SDS011;35901;48.694;9.476;2022-07-05T05:16:17;3.03;;;2.73;;
50012;SDS011;35901;48.694;9.476;2022-07-05T05:18:43;2.57;;;2.37;;
50012;SDS011;35901;48.694;9.476;2022-07-05T05:21:09;3.97;;;2.57;;
50012;SDS011;35901;48.694;9.476;2022-07-05T05:23:37;2.83;;;2.63;;
50012;SDS011;35901;48.694;9.476;2022-07-05T05:26:03;2.90;;;2.70;;
50012;SDS011;35901;48.694;9.476;2022-07-05T05:28:30;2.40;;;2.20;;
50012;SDS011;35901;48.694;9.476;2022-07-05T05:30:56;2.70;;;2.50;;
50012;SDS011;35901;48.694;9.476;2022-07-05T05:33:23;2.87;;;2.60;;
50012;SDS011;35901;48.694;9.476;2022-07-05T05:35:49;3.47;;;2.60;;
50012;SDS011;35901;48.694;9.476;2022-07-05T05:38:15;3.07;;;2.70;;
50012;SDS011;35901;48.694;9.476;2022-07-05T05:40:42;2.77;;;2.57;;
50012;SDS011;35901;48.694;9.476;2022-07-05T05:43:10;4.33;;;2.40;;
50012;SDS011;35901;48.694;9.476;2022-07-05T05:45:37;2.63;;;2.43;;
50012;SDS011;35901;48.694;9.476;2022-07-05T05:48:04;3.23;;;2.60;;
50012;SDS011;35901;48.694;9.476;2022-07-05T05:50:32;3.37;;;2.33;;
50012;SDS011;35901;48.694;9.476;2022-07-05T05:53:00;2.83;;;2.63;;
50012;SDS011;35901;48.694;9.476;2022-07-05T05:55:27;2.63;;;2.40;;
50012;SDS011;35901;48.694;9.476;2022-07-05T05:57:55;2.70;;;2.50;;
50012;SDS011;35901;48.694;9.476;2022-07-05T06:00:23;3.70;;;2.40;;
50012;SDS011;35901;48.694;9.476;2022-07-05T06:02:49;3.40;;;2.60;;
50012;SDS011;35901;48.694;9.476;2022-07-05T06:05:16;2.30;;;2.20;;
50012;SDS011;35901;48.694;9.476;2022-07-05T06:07:49;2.57;;;2.23;;
50012;SDS011;35901;48.694;9.476;2022-07-05T06:10:20;2.30;;;2.10;;
50012;SDS011;35901;48.694;9.476;2022-07-05T06:12:51;2.83;;;2.37;;
50012;SDS011;35901;48.694;9.476;2022-07-05T06:15:19;2.97;;;2.50;;
50012;SDS011;35901;48.694;9.476;2022-07-05T06:17:45;3.23;;;2.50;;
50012;SDS011;35901;48.694;9.476;2022-07-05T06:20:17;2.47;;;2.27;;
50012;SDS011;35901;48.694;9.476;2022-07-05T06:22:45;2.30;;;2.10;;
50012;SDS011;35901;48.694;9.476;2022-07-05T06:25:14;2.40;;;2.20;;
50012;SDS011;35901;48.694;9.476;2022-07-05T06:27:42;2.90;;;2.40;;
50012;SDS011;35901;48.694;9.476;2022-07-05T06:30:09;2.70;;;2.33;;
50012;SDS011;35901;48.694;9.476;2022-07-05T06:32:36;3.37;;;2.20;;
50012;SDS011;35901;48.694;9.476;2022-07-05T06:35:02;4.50;;;2.40;;
50012;SDS011;35901;48.694;9.476;2022-07-05T06:37:46;2.47;;;2.27;;
50012;SDS011;35901;48.694;9.476;2022-07-05T06:40:23;2.23;;;2.00;;
50012;SDS011;35901;48.694;9.476;2022-07-05T06:42:53;2.27;;;2.10;;
50012;SDS011;35901;48.694;9.476;2022-07-05T06:45:30;3.00;;;1.90;;
50012;SDS011;35901;48.694;9.476;2022-07-05T06:47:58;3.17;;;2.07;;
50012;SDS011;35901;48.694;9.476;2022-07-05T06:50:26;3.67;;;2.53;;
50012;SDS011;35901;48.694;9.476;2022-07-05T06:52:58;4.50;;;2.30;;
50012;SDS011;35901;48.694;9.476;2022-07-05T06:55:25;3.20;;;2.57;;
50012;SDS011;35901;48.694;9.476;2022-07-05T06:57:56;2.57;;;2.20;;
50012;SDS011;35901;48.694;9.476;2022-07-05T07:00:32;2.60;;;2.40;;
50012;SDS011;35901;48.694;9.476;2022-07-05T07:02:59;2.50;;;2.00;;
50012;SDS011;35901;48.694;9.476;2022-07-05T07:05:26;2.67;;;2.47;;
50012;SDS011;35901;48.694;9.476;2022-07-05T07:07:52;2.43;;;2.23;;
50012;SDS011;35901;48.694;9.476;2022-07-05T07:10:37;4.97;;;2.40;;
50012;SDS011;35901;48.694;9.476;2022-07-05T07:13:04;3.50;;;2.27;;
50012;SDS011;35901;48.694;9.476;2022-07-05T07:15:30;2.53;;;2.20;;
50012;SDS011;35901;48.694;9.476;2022-07-05T07:17:57;2.77;;;2.47;;
50012;SDS011;35901;48.694;9.476;2022-07-05T07:20:23;2.20;;;2.00;;
50012;SDS011;35901;48.694;9.476;2022-07-05T07:22:50;3.23;;;2.20;;
50012;SDS011;35901;48.694;9.476;2022-07-05T07:25:16;5.53;;;2.30;;
50012;SDS011;35901;48.694;9.476;2022-07-05T07:34:14;3.77;;;2.40;;
50012;SDS011;35901;48.694;9.476;2022-07-05T07:36:40;2.43;;;2.23;;
50012;SDS011;35901;48.694;9.476;2022-07-05T07:39:06;5.97;;;2.20;;
50012;SDS011;35901;48.694;9.476;2022-07-05T07:41:32;3.23;;;2.37;;
50012;SDS011;35901;48.694;9.476;2022-07-05T07:44:02;3.37;;;2.17;;
50012;SDS011;35901;48.694;9.476;2022-07-05T07:46:28;2.30;;;2.10;;
50012;SDS011;35901;48.694;9.476;2022-07-05T07:48:56;3.97;;;2.30;;
50012;SDS011;35901;48.694;9.476;2022-07-05T07:51:22;2.67;;;2.30;;
50012;SDS011;35901;48.694;9.476;2022-07-05T07:53:49;2.87;;;2.20;;
50012;SDS011;35901;48.694;9.476;2022-07-05T07:56:15;2.33;;;2.10;;
50012;SDS011;35901;48.694;9.476;2022-07-05T07:58:41;3.47;;;2.27;;
50012;SDS011;35901;48.694;9.476;2022-07-05T08:01:06;2.87;;;2.17;;
50012;SDS011;35901;48.694;9.476;2022-07-05T08:03:39;4.20;;;2.10;;
50012;SDS011;35901;48.694;9.476;2022-07-05T08:06:07;4.47;;;2.50;;
50012;SDS011;35901;48.694;9.476;2022-07-05T08:08:39;2.90;;;2.10;;
50012;SDS011;35901;48.694;9.476;2022-07-05T08:11:08;2.47;;;2.27;;
50012;SDS011;35901;48.694;9.476;2022-07-05T08:13:36;2.93;;;2.30;;
50012;SDS011;35901;48.694;9.476;2022-07-05T08:16:02;3.27;;;2.30;;
50012;SDS011;35901;48.694;9.476;2022-07-05T08:18:28;2.73;;;2.10;;
50012;SDS011;35901;48.694;9.476;2022-07-05T08:21:13;2.10;;;1.90;;
50012;SDS011;35901;48.694;9.476;2022-07-05T08:24:07;2.03;;;1.90;;
50012;SDS011;35901;48.694;9.476;2022-07-05T08:26:51;2.70;;;2.00;;
50012;SDS011;35901;48.694;9.476;2022-07-05T08:29:17;2.53;;;2.10;;
50012;SDS011;35901;48.694;9.476;2022-07-05T08:31:43;2.97;;;2.57;;
50012;SDS011;35901;48.694;9.476;2022-07-05T08:34:14;4.33;;;2.60;;
50012;SDS011;35901;48.694;9.476;2022-07-05T08:36:40;4.60;;;2.03;;
50012;SDS011;35901;48.694;9.476;2022-07-05T08:39:07;2.63;;;2.10;;
50012;SDS011;35901;48.694;9.476;2022-07-05T08:41:40;2.83;;;1.90;;
50012;SDS011;35901;48.694;9.476;2022-07-05T08:44:07;3.83;;;2.00;;
50012;SDS011;35901;48.694;9.476;2022-07-05T08:46:36;3.23;;;2.10;;
50012;SDS011;35901;48.694;9.476;2022-07-05T08:49:04;2.77;;;2.00;;
50012;SDS011;35901;48.694;9.476;2022-07-05T08:51:32;3.90;;;1.97;;
50012;SDS011;35901;48.694;9.476;2022-07-05T08:54:03;3.20;;;1.80;;
50012;SDS011;35901;48.694;9.476;2022-07-05T08:56:33;2.03;;;1.80;;
50012;SDS011;35901;48.694;9.476;2022-07-05T08:59:00;3.90;;;2.20;;
50012;SDS011;35901;48.694;9.476;2022-07-05T09:01:26;3.00;;;2.00;;
50012;SDS011;35901;48.694;9.476;2022-07-05T09:03:56;2.87;;;2.10;;
50012;SDS011;35901;48.694;9.476;2022-07-05T09:06:27;3.17;;;2.27;;
50012;SDS011;35901;48.694;9.476;2022-07-05T09:08:54;4.00;;;2.20;;
50012;SDS011;35901;48.694;9.476;2022-07-05T09:11:28;3.33;;;2.00;;
50012;SDS011;35901;48.694;9.476;2022-07-05T09:14:02;2.53;;;2.23;;
50012;SDS011;35901;48.694;9.476;2022-07-05T09:16:29;2.63;;;2.40;;
50012;SDS011;35901;48.694;9.476;2022-07-05T09:18:56;3.80;;;2.27;;
50012;SDS011;35901;48.694;9.476;2022-07-05T09:21:29;3.47;;;2.10;;
50012;SDS011;35901;48.694;9.476;2022-07-05T09:23:58;2.27;;;2.07;;
50012;SDS011;35901;48.694;9.476;2022-07-05T09:26:34;4.57;;;2.30;;
50012;SDS011;35901;48.694;9.476;2022-07-05T09:29:10;4.80;;;2.23;;
50012;SDS011;35901;48.694;9.476;2022-07-05T09:31:41;2.83;;;2.00;;
50012;SDS011;35901;48.694;9.476;2022-07-05T09:34:09;3.60;;;2.03;;
50012;SDS011;35901;48.694;9.476;2022-07-05T09:36:58;2.97;;;2.00;;
50012;SDS011;35901;48.694;9.476;2022-07-05T09:39:35;3.50;;;2.00;;
50012;SDS011;35901;48.694;9.476;2022-07-05T09:42:19;2.33;;;1.90;;
50012;SDS011;35901;48.694;9.476;2022-07-05T09:44:50;4.57;;;2.20;;
50012;SDS011;35901;48.694;9.476;2022-07-05T09:47:22;3.13;;;2.00;;
50012;SDS011;35901;48.694;9.476;2022-07-05T09:49:49;2.30;;;2.00;;
50012;SDS011;35901;48.694;9.476;2022-07-05T09:55:16;2.00;;;1.90;;
50012;SDS011;35901;48.694;9.476;2022-07-05T09:57:43;2.50;;;1.77;;
50012;SDS011;35901;48.694;9.476;2022-07-05T10:00:12;3.60;;;1.80;;
50012;SDS011;35901;48.694;9.476;2022-07-05T10:02:46;2.30;;;1.57;;
50012;SDS011;35901;48.694;9.476;2022-07-05T10:07:49;1.83;;;1.33;;
50012;SDS011;35901;48.694;9.476;2022-07-05T10:10:19;2.67;;;1.63;;
50012;SDS011;35901;48.694;9.476;2022-07-05T10:12:46;2.00;;;1.40;;
50012;SDS011;35901;48.694;9.476;2022-07-05T10:15:14;1.83;;;1.30;;
50012;SDS011;35901;48.694;9.476;2022-07-05T10:17:44;1.47;;;1.30;;
50012;SDS011;35901;48.694;9.476;2022-07-05T10:22:58;2.97;;;1.20;;
50012;SDS011;35901;48.694;9.476;2022-07-05T10:25:27;2.50;;;1.40;;
50012;SDS011;35901;48.694;9.476;2022-07-05T10:27:54;3.50;;;1.47;;
50012;SDS011;35901;48.694;9.476;2022-07-05T10:30:22;1.57;;;1.30;;
50012;SDS011;35901;48.694;9.476;2022-07-05T10:32:48;1.40;;;1.30;;
50012;SDS011;35901;48.694;9.476;2022-07-05T10:35:18;2.07;;;1.40;;
50012;SDS011;35901;48.694;9.476;2022-07-05T10:37:44;1.60;;;1.50;;
50012;SDS011;35901;48.694;9.476;2022-07-05T10:40:10;2.30;;;1.73;;
50012;SDS011;35901;48.694;9.476;2022-07-05T10:43:11;2.10;;;1.30;;
50012;SDS011;35901;48.694;9.476;2022-07-05T10:45:33;3.00;;;1.80;;
50012;SDS011;35901;48.694;9.476;2022-07-05T10:50:54;2.17;;;1.40;;
50012;SDS011;35901;48.694;9.476;2022-07-05T11:02:34;2.07;;;1.77;;
50012;SDS011;35901;48.694;9.476;2022-07-05T11:04:59;1.48;;;1.38;;
50012;SDS011;35901;48.694;9.476;2022-07-05T11:10:24;1.65;;;1.30;;
50012;SDS011;35901;48.694;9.476;2022-07-05T11:12:50;2.00;;;1.40;;
50012;SDS011;35901;48.694;9.476;2022-07-05T11:15:16;1.27;;;1.17;;
50012;SDS011;35901;48.694;9.476;2022-07-05T11:17:42;1.57;;;1.20;;
50012;SDS011;35901;48.694;9.476;2022-07-05T11:20:16;1.30;;;1.20;;
50012;SDS011;35901;48.694;9.476;2022-07-05T11:23:05;3.83;;;1.13;;
50012;SDS011;35901;48.694;9.476;2022-07-05T11:25:34;2.77;;;1.20;;
50012;SDS011;35901;48.694;9.476;2022-07-05T11:31:49;1.67;;;1.13;;
50012;SDS011;35901;48.694;9.476;2022-07-05T11:34:33;2.47;;;1.30;;
50012;SDS011;35901;48.694;9.476;2022-07-05T11:40:34;2.00;;;1.40;;
50012;SDS011;35901;48.694;9.476;2022-07-05T11:42:35;1.57;;;1.20;;
50012;SDS011;35901;48.694;9.476;2022-07-05T11:45:07;1.65;;;1.30;;
50012;SDS011;35901;48.694;9.476;2022-07-05T11:47:34;1.70;;;1.20;;
50012;SDS011;35901;48.694;9.476;2022-07-05T11:50:00;1.48;;;1.20;;
50012;SDS011;35901;48.694;9.476;2022-07-05T11:54:52;2.00;;;1.10;;
50012;SDS011;35901;48.694;9.476;2022-07-05T11:57:19;1.80;;;1.10;;
50012;SDS011;35901;48.694;9.476;2022-07-05T11:59:45;2.03;;;1.30;;
50012;SDS011;35901;48.694;9.476;2022-07-05T12:02:12;1.67;;;1.20;;
50012;SDS011;35901;48.694;9.476;2022-07-05T12:04:46;1.03;;;1.00;;
50012;SDS011;35901;48.694;9.476;2022-07-05T12:07:33;2.13;;;1.08;;
50012;SDS011;35901;48.694;9.476;2022-07-05T12:10:00;1.80;;;1.20;;
50012;SDS011;35901;48.694;9.476;2022-07-05T12:12:47;1.20;;;1.10;;
50012;SDS011;35901;48.694;9.476;2022-07-05T12:15:28;1.00;;;1.00;;
50012;SDS011;35901;48.694;9.476;2022-07-05T12:17:59;2.03;;;1.20;;
50012;SDS011;35901;48.694;9.476;2022-07-05T12:20:35;1.17;;;1.17;;
50012;SDS011;35901;48.694;9.476;2022-07-05T12:23:02;1.23;;;1.00;;
50012;SDS011;35901;48.694;9.476;2022-07-05T12:25:40;2.33;;;1.30;;
50012;SDS011;35901;48.694;9.476;2022-07-05T12:28:09;1.58;;;1.40;;
50012;SDS011;35901;48.694;9.476;2022-07-05T12:30:35;2.30;;;1.23;;
50012;SDS011;35901;48.694;9.476;2022-07-05T12:33:08;1.37;;;1.20;;
50012;SDS011;35901;48.694;9.476;2022-07-05T12:35:42;1.40;;;1.10;;
50012;SDS011;35901;48.694;9.476;2022-07-05T12:38:14;1.87;;;1.10;;
50012;SDS011;35901;48.694;9.476;2022-07-05T12:40:48;2.20;;;1.10;;
50012;SDS011;35901;48.694;9.476;2022-07-05T12:43:27;1.20;;;1.10;;
50012;SDS011;35901;48.694;9.476;2022-07-05T12:46:04;3.70;;;1.00;;
50012;SDS011;35901;48.694;9.476;2022-07-05T12:48:38;1.27;;;1.17;;
50012;SDS011;35901;48.694;9.476;2022-07-05T12:51:05;1.52;;;1.10;;
50012;SDS011;35901;48.694;9.476;2022-07-05T12:53:43;2.00;;;1.10;;
50012;SDS011;35901;48.694;9.476;2022-07-05T12:56:32;1.30;;;1.20;;
50012;SDS011;35901;48.694;9.476;2022-07-05T12:59:16;1.10;;;1.00;;
50012;SDS011;35901;48.694;9.476;2022-07-05T13:01:43;3.70;;;1.50;;
50012;SDS011;35901;48.694;9.476;2022-07-05T13:04:11;1.73;;;1.20;;
50012;SDS011;35901;48.694;9.476;2022-07-05T13:12:14;1.60;;;1.20;;
50012;SDS011;35901;48.694;9.476;2022-07-05T13:14:46;2.08;;;1.13;;
50012;SDS011;35901;48.694;9.476;2022-07-05T13:17:26;2.45;;;1.25;;
50012;SDS011;35901;48.694;9.476;2022-07-05T13:19:59;1.38;;;1.27;;
50012;SDS011;35901;48.694;9.476;2022-07-05T13:22:26;3.25;;;1.20;;
50012;SDS011;35901;48.694;9.476;2022-07-05T13:24:51;1.00;;;1.00;;
50012;SDS011;35901;48.694;9.476;2022-07-05T13:27:19;2.65;;;1.15;;
50012;SDS011;35901;48.694;9.476;2022-07-05T13:29:46;6.80;;;1.27;;
50012;SDS011;35901;48.694;9.476;2022-07-05T13:32:13;1.10;;;1.10;;
50012;SDS011;35901;48.694;9.476;2022-07-05T13:34:45;1.33;;;1.23;;
50012;SDS011;35901;48.694;9.476;2022-07-05T13:37:11;1.55;;;1.25;;
50012;SDS011;35901;48.694;9.476;2022-07-05T13:39:37;1.40;;;1.30;;
50012;SDS011;35901;48.694;9.476;2022-07-05T13:42:05;1.55;;;1.10;;
50012;SDS011;35901;48.694;9.476;2022-07-05T13:44:31;1.35;;;1.25;;
50012;SDS011;35901;48.694;9.476;2022-07-05T13:46:57;1.17;;;1.15;;
50012;SDS011;35901;48.694;9.476;2022-07-05T13:49:23;2.70;;;1.15;;
50012;SDS011;35901;48.694;9.476;2022-07-05T13:51:49;2.00;;;1.10;;
50012;SDS011;35901;48.694;9.476;2022-07-05T13:54:15;2.20;;;1.15;;
50012;SDS011;35901;48.694;9.476;2022-07-05T13:56:41;1.77;;;1.00;;
50012;SDS011;35901;48.694;9.476;2022-07-05T13:59:07;1.25;;;1.15;;
50012;SDS011;35901;48.694;9.476;2022-07-05T14:01:33;1.33;;;1.17;;
50012;SDS011;35901;48.694;9.476;2022-07-05T14:04:00;1.63;;;1.20;;
50012;SDS011;35901;48.694;9.476;2022-07-05T14:06:31;1.63;;;1.30;;
50012;SDS011;35901;48.694;9.476;2022-07-05T14:08:57;1.10;;;1.10;;
50012;SDS011;35901;48.694;9.476;2022-07-05T14:11:24;2.10;;;1.15;;
50012;SDS011;35901;48.694;9.476;2022-07-05T14:13:52;2.17;;;1.15;;
50012;SDS011;35901;48.694;9.476;2022-07-05T14:16:18;2.85;;;1.05;;
50012;SDS011;35901;48.694;9.476;2022-07-05T14:18:44;1.63;;;1.25;;
50012;SDS011;35901;48.694;9.476;2022-07-05T14:21:10;1.10;;;1.10;;
50012;SDS011;35901;48.694;9.476;2022-07-05T14:23:40;2.08;;;1.15;;
50012;SDS011;35901;48.694;9.476;2022-07-05T14:26:07;1.15;;;1.10;;
50012;SDS011;35901;48.694;9.476;2022-07-05T14:28:33;1.20;;;1.20;;
50012;SDS011;35901;48.694;9.476;2022-07-05T14:31:02;2.90;;;1.25;;
50012;SDS011;35901;48.694;9.476;2022-07-05T14:33:27;2.53;;;1.20;;
50012;SDS011;35901;48.694;9.476;2022-07-05T14:35:53;3.90;;;1.40;;
50012;SDS011;35901;48.694;9.476;2022-07-05T14:38:19;1.88;;;1.30;;
50012;SDS011;35901;48.694;9.476;2022-07-05T14:40:44;1.33;;;1.23;;
50012;SDS011;35901;48.694;9.476;2022-07-05T14:43:10;1.55;;;1.35;;
50012;SDS011;35901;48.694;9.476;2022-07-05T14:45:36;1.67;;;1.48;;
50012;SDS011;35901;48.694;9.476;2022-07-05T14:48:02;1.60;;;1.40;;
50012;SDS011;35901;48.694;9.476;2022-07-05T14:50:28;1.80;;;1.10;;
50012;SDS011;35901;48.694;9.476;2022-07-05T14:52:54;1.63;;;1.38;;
50012;SDS011;35901;48.694;9.476;2022-07-05T14:55:20;3.45;;;1.30;;
50012;SDS011;35901;48.694;9.476;2022-07-05T14:57:45;1.30;;;1.20;;
50012;SDS011;35901;48.694;9.476;2022-07-05T15:00:12;1.60;;;1.20;;
50012;SDS011;35901;48.694;9.476;2022-07-05T15:02:45;1.15;;;1.13;;
50012;SDS011;35901;48.694;9.476;2022-07-05T15:05:11;1.77;;;1.30;;
50012;SDS011;35901;48.694;9.476;2022-07-05T15:07:37;2.85;;;1.27;;
50012;SDS011;35901;48.694;9.476;2022-07-05T15:10:04;6.47;;;1.50;;
50012;SDS011;35901;48.694;9.476;2022-07-05T15:12:30;2.63;;;1.47;;
50012;SDS011;35901;48.694;9.476;2022-07-05T15:14:56;1.67;;;1.50;;
50012;SDS011;35901;48.694;9.476;2022-07-05T15:17:22;4.73;;;2.00;;
50012;SDS011;35901;48.694;9.476;2022-07-05T15:19:49;3.97;;;1.60;;
50012;SDS011;35901;48.694;9.476;2022-07-05T15:22:15;3.40;;;1.47;;
50012;SDS011;35901;48.694;9.476;2022-07-05T15:24:41;3.73;;;1.50;;
50012;SDS011;35901;48.694;9.476;2022-07-05T15:27:10;1.80;;;1.57;;
50012;SDS011;35901;48.694;9.476;2022-07-05T15:29:36;1.40;;;1.30;;
50012;SDS011;35901;48.694;9.476;2022-07-05T15:32:14;1.92;;;1.33;;
50012;SDS011;35901;48.694;9.476;2022-07-05T15:34:42;2.10;;;1.20;;
50012;SDS011;35901;48.694;9.476;2022-07-05T15:37:07;2.53;;;1.27;;
50012;SDS011;35901;48.694;9.476;2022-07-05T15:39:33;3.22;;;1.40;;
50012;SDS011;35901;48.694;9.476;2022-07-05T15:42:00;2.88;;;1.20;;
50012;SDS011;35901;48.694;9.476;2022-07-05T15:44:27;3.72;;;1.63;;
50012;SDS011;35901;48.694;9.476;2022-07-05T15:46:53;1.10;;;1.05;;